Yorkshire, New York
Current Conditions -  °F | °C
As of 10:55 AM on Thursday 27 Nov 2014 (Local Time) from KOLE Reporting Station
Broken Clouds Broken Clouds  
Wind Chill: 28°   Ceiling: 2400
Heat Index: 28°   Visibility: 10mi
Dew Point: 21°   Wind: 0mph
Humidity: 74%   Direction: NA
Pressure: 29.98"   Gusts: NA
Location:  42.52°N, 78.48°W
Report Text: KOLE 271555Z AUTO 00000KT 10SM BKN024 BKN042 M02/M06 A2998 RMK AO2
Loading
Personal Weather Stations






























Interactive Weather Map New forecast layout! Learn more

10-Day Weather Forecast

Advertisements
Track Severe Weather on mobile